createdAt,value
2022-11-10T00:01:19.813Z,101775.72
2022-11-10T00:04:16.323Z,101774.41
2022-11-10T00:07:09.524Z,101766.31
2022-11-10T00:10:07.497Z,101753.31
2022-11-10T00:13:10.612Z,101753.16
2022-11-10T00:16:36.606Z,101759.66
2022-11-10T00:19:40.548Z,101767.59
2022-11-10T00:22:36.159Z,101772.81
2022-11-10T00:25:36.579Z,101778.16
2022-11-10T00:28:37.028Z,101782.97
2022-11-10T00:31:36.569Z,101774.75
2022-11-10T00:34:37.097Z,101778.41
2022-11-10T00:37:39.336Z,101776.00
2022-11-10T00:40:36.636Z,101774.78
2022-11-10T00:43:36.212Z,101772.72
2022-11-10T00:46:39.566Z,101770.91
2022-11-10T00:49:36.481Z,101770.91
2022-11-10T00:52:43.268Z,101769.50
2022-11-10T00:55:36.708Z,101764.94
2022-11-10T00:58:39.801Z,101774.66
2022-11-10T01:01:39.777Z,101776.94
2022-11-10T01:04:39.057Z,101772.22
2022-11-10T01:07:36.569Z,101774.66
2022-11-10T01:10:25.241Z,101779.56
2022-11-10T01:13:14.908Z,101776.94
2022-11-10T01:16:24.121Z,101764.09
2022-11-10T01:19:38.863Z,101772.53
2022-11-10T01:22:48.582Z,101776.66
2022-11-10T01:25:43.371Z,101763.81
2022-11-10T01:28:35.552Z,101764.47
2022-11-10T01:31:30.553Z,101767.31
2022-11-10T01:34:24.785Z,101773.78
2022-11-10T01:37:18.721Z,101767.19
2022-11-10T01:40:18.053Z,101764.06
2022-11-10T01:43:20.603Z,101762.09
2022-11-10T01:46:21.093Z,101767.03
2022-11-10T01:49:17.838Z,101754.16
2022-11-10T01:52:36.116Z,101761.53
2022-11-10T01:55:35.871Z,101755.13
2022-11-10T01:58:40.001Z,101765.75
2022-11-10T02:01:39.368Z,101762.84
2022-11-10T02:04:39.432Z,101769.53
2022-11-10T02:07:40.505Z,101774.34
2022-11-10T02:10:40.762Z,101769.34
2022-11-10T02:13:39.113Z,101768.44
2022-11-10T02:16:45.122Z,101766.84
2022-11-10T02:19:46.691Z,101768.03
2022-11-10T02:22:42.976Z,101761.66
2022-11-10T02:25:35.190Z,101772.44
2022-11-10T02:28:34.979Z,101775.03
2022-11-10T02:31:36.529Z,101766.34
2022-11-10T02:34:36.790Z,101768.91
2022-11-10T02:37:41.223Z,101765.81
2022-11-10T02:40:44.069Z,101763.44
2022-11-10T02:43:48.201Z,101764.09
2022-11-10T02:46:40.563Z,101753.84
2022-11-10T02:49:38.826Z,101760.16
2022-11-10T02:52:40.726Z,101752.34
2022-11-10T02:55:50.913Z,101752.13
2022-11-10T02:58:54.840Z,101751.44
2022-11-10T03:01:52.466Z,101748.09
2022-11-10T03:04:49.672Z,101748.69
2022-11-10T03:07:48.994Z,101745.72
2022-11-10T03:10:42.786Z,101749.97
2022-11-10T03:14:00.898Z,101741.97
2022-11-10T03:17:07.719Z,101739.16
2022-11-10T03:20:08.987Z,101728.78
2022-11-10T03:23:08.966Z,101731.59
2022-11-10T03:26:16.041Z,101732.84
2022-11-10T03:29:05.817Z,101722.41
2022-11-10T03:32:06.900Z,101725.41
2022-11-10T03:35:07.133Z,101723.69
2022-11-10T03:38:12.323Z,101713.72
2022-11-10T03:41:22.565Z,101714.81
2022-11-10T03:44:16.387Z,101713.72
2022-11-10T03:47:09.084Z,101717.38
2022-11-10T03:50:12.115Z,101713.00
2022-11-10T03:53:08.376Z,101711.59
2022-11-10T03:56:08.698Z,101708.38
2022-11-10T03:59:07.280Z,101712.00
2022-11-10T04:02:07.085Z,101709.94
2022-11-10T04:05:35.683Z,101710.19
2022-11-10T04:09:03.668Z,101698.09
2022-11-10T04:12:20.725Z,101698.09
2022-11-10T04:15:39.037Z,101692.50
2022-11-10T04:18:38.860Z,101690.94
2022-11-10T04:21:45.373Z,101695.00
2022-11-10T04:24:44.130Z,101689.66
2022-11-10T04:27:43.063Z,101686.84
2022-11-10T04:30:36.783Z,101683.78
2022-11-10T04:34:03.403Z,101683.88
2022-11-10T04:37:17.300Z,101674.44
2022-11-10T04:40:16.154Z,101672.19
2022-11-10T04:43:25.365Z,101687.41
2022-11-10T04:46:47.484Z,101673.91
2022-11-10T04:49:45.364Z,101678.81
2022-11-10T04:53:33.332Z,101679.97
2022-11-10T04:56:42.846Z,101668.13
2022-11-10T04:59:37.085Z,101667.56
2022-11-10T05:02:28.607Z,101671.78
2022-11-10T05:05:20.284Z,101667.53
2022-11-10T05:08:15.762Z,101662.34
2022-11-10T05:11:04.035Z,101661.91
2022-11-10T05:13:52.543Z,101654.75
2022-11-10T05:16:42.257Z,101656.44
2022-11-10T05:19:31.841Z,101656.31
2022-11-10T05:22:20.754Z,101657.00
2022-11-10T05:25:12.029Z,101660.38
2022-11-10T05:28:00.889Z,101655.59
2022-11-10T05:30:52.426Z,101648.13
2022-11-10T05:33:43.133Z,101646.03
2022-11-10T05:36:32.207Z,101645.47
2022-11-10T05:39:21.459Z,101644.78
2022-11-10T05:42:10.883Z,101644.72
2022-11-10T05:45:30.296Z,101629.13
2022-11-10T05:48:19.819Z,101634.28
2022-11-10T05:51:08.399Z,101639.16
2022-11-10T05:54:00.130Z,101631.97
2022-11-10T05:56:48.482Z,101629.84
2022-11-10T05:59:38.442Z,101624.19
2022-11-10T06:02:28.290Z,101616.50
2022-11-10T06:05:16.919Z,101622.00
2022-11-10T06:08:08.424Z,101617.13
2022-11-10T06:10:57.569Z,101618.97
2022-11-10T06:13:46.197Z,101602.97
2022-11-10T06:16:36.822Z,101607.88
2022-11-10T06:19:32.059Z,101603.53
2022-11-10T06:22:20.667Z,101601.13
2022-11-10T06:25:12.757Z,101598.72
2022-11-10T06:28:35.039Z,101604.53
2022-11-10T07:21:39.917Z,101598.97
2022-11-10T07:55:00.738Z,101539.75
2022-11-10T12:27:22.855Z,101473.78
2022-11-10T14:16:52.610Z,101434.94
2022-11-10T18:09:10.159Z,101068.75
2022-11-10T18:46:12.247Z,101023.41
2022-11-10T18:49:21.470Z,101015.75
2022-11-10T18:52:16.519Z,101007.19
2022-11-10T18:55:17.376Z,101009.16
2022-11-10T18:58:08.098Z,101007.50
2022-11-10T19:01:12.717Z,101010.03
2022-11-10T19:04:19.011Z,101010.63
2022-11-10T19:07:08.987Z,101002.94
2022-11-10T19:10:16.119Z,100997.28
2022-11-10T19:13:14.656Z,100993.03
2022-11-10T19:16:16.255Z,100996.00
2022-11-10T19:24:28.311Z,100990.41
2022-11-10T19:27:19.954Z,100989.94
2022-11-10T19:30:14.384Z,100989.91
2022-11-10T19:33:09.570Z,100985.09
2022-11-10T19:36:15.587Z,100986.09
2022-11-10T19:39:04.986Z,100982.06
2022-11-10T19:42:03.463Z,100984.66
2022-11-10T19:44:55.626Z,100983.03
2022-11-10T19:48:04.080Z,100974.25
2022-11-10T19:50:57.398Z,100977.50
2022-11-10T19:53:53.191Z,100970.56
2022-11-10T19:56:45.000Z,100959.59
2022-11-10T19:59:35.688Z,100951.72
2022-11-10T20:02:25.124Z,100951.09
2022-11-10T20:05:17.342Z,100952.25
2022-11-10T20:08:13.826Z,100954.28
2022-11-10T20:11:08.573Z,100947.19
2022-11-10T20:14:07.310Z,100953.25
2022-11-10T20:17:01.303Z,100958.03
2022-11-10T20:19:59.995Z,100960.59
2022-11-10T20:22:49.197Z,100961.06
2022-11-10T20:25:41.401Z,100958.09
2022-11-10T20:28:39.585Z,100951.66
2022-11-10T20:36:36.504Z,100936.78
2022-11-10T20:39:57.848Z,100927.41
2022-11-10T20:43:20.399Z,100924.34
2022-11-10T20:46:59.394Z,100917.41
2022-11-10T20:50:24.141Z,100908.88
2022-11-10T20:53:19.277Z,100901.81
2022-11-10T20:56:30.477Z,100906.81
2022-11-10T21:00:10.968Z,100915.88
2022-11-10T21:03:35.207Z,100906.56
2022-11-10T21:06:49.400Z,100912.53
2022-11-10T21:09:52.410Z,100904.66
2022-11-10T21:12:51.197Z,100903.19
2022-11-10T21:16:00.149Z,100902.72
2022-11-10T21:19:01.506Z,100903.72
2022-11-10T21:35:37.823Z,100886.00
2022-11-10T21:38:27.792Z,100880.97
2022-11-10T21:41:17.106Z,100877.53
2022-11-10T21:44:06.360Z,100884.22
2022-11-10T21:47:02.829Z,100882.31
2022-11-10T21:49:51.816Z,100873.19
2022-11-10T21:52:41.311Z,100875.19
2022-11-10T21:55:33.079Z,100875.97
2022-11-10T21:58:25.052Z,100873.56
2022-11-10T22:01:21.863Z,100866.22
2022-11-10T22:04:12.929Z,100872.75
2022-11-10T22:07:24.115Z,100869.75
2022-11-10T22:10:32.220Z,100874.06
2022-11-10T22:13:40.171Z,100871.03
2022-11-10T23:12:16.478Z,100844.50
2022-11-10T23:15:39.490Z,100846.50
2022-11-10T23:21:00.545Z,100834.84
2022-11-10T23:35:40.228Z,100831.78
